createdAt,value
2022-12-18T00:00:24.417Z,101742.59
2022-12-18T00:05:26.425Z,101729.13
2022-12-18T00:10:29.573Z,101754.59
2022-12-18T00:15:31.570Z,101767.16
2022-12-18T00:20:38.191Z,101777.00
2022-12-18T00:25:40.241Z,101796.88
2022-12-18T00:30:42.768Z,101812.81
2022-12-18T00:35:44.779Z,101813.34
2022-12-18T00:40:46.782Z,101825.25
2022-12-18T00:45:48.859Z,101834.31
2022-12-18T00:50:51.910Z,101822.97
2022-12-18T00:55:53.926Z,101824.09
2022-12-18T01:00:55.967Z,101821.59
2022-12-18T01:05:57.982Z,101842.31
2022-12-18T01:11:00.015Z,101850.19
2022-12-18T01:16:02.274Z,101843.84
2022-12-18T01:21:13.768Z,101855.59
2022-12-18T01:26:17.271Z,101851.81
2022-12-18T01:31:23.451Z,101867.94
2022-12-18T01:36:29.321Z,101842.97
2022-12-18T01:41:52.399Z,101858.31
2022-12-18T01:46:54.426Z,101862.19
2022-12-18T01:51:56.502Z,101882.56
2022-12-18T01:56:58.529Z,101889.56
2022-12-18T02:02:01.615Z,101879.41
2022-12-18T02:07:06.771Z,101886.63
2022-12-18T02:12:18.702Z,101894.06
2022-12-18T02:17:24.614Z,101908.31
2022-12-18T02:22:35.498Z,101911.72
2022-12-18T02:27:39.167Z,101929.00
2022-12-18T02:32:46.148Z,101920.75
2022-12-18T02:37:48.554Z,101919.88
2022-12-18T02:42:50.727Z,101934.59
2022-12-18T02:47:52.818Z,101947.03
2022-12-18T02:53:20.754Z,101934.59
2022-12-18T02:58:25.750Z,101955.09
2022-12-18T03:03:45.825Z,101969.72
2022-12-18T03:08:51.945Z,101953.94
2022-12-18T03:13:58.240Z,101966.13
2022-12-18T03:19:04.655Z,101965.72
2022-12-18T03:24:10.337Z,101974.56
2022-12-18T03:29:45.358Z,101968.63
2022-12-18T03:34:51.879Z,101995.53
2022-12-18T03:39:54.076Z,102010.00
2022-12-18T03:45:09.010Z,102012.56
2022-12-18T03:50:20.960Z,102019.06
2022-12-18T03:55:26.399Z,102027.16
2022-12-18T04:00:30.410Z,102029.09
2022-12-18T04:05:36.390Z,102016.78
2022-12-18T04:10:38.484Z,102027.28
2022-12-18T04:15:41.273Z,102021.84
2022-12-18T04:20:43.297Z,102042.38
2022-12-18T04:25:45.295Z,102042.56
2022-12-18T04:30:47.409Z,102029.19
2022-12-18T04:35:49.928Z,102040.91
2022-12-18T04:40:51.928Z,102043.56
2022-12-18T04:45:53.948Z,102055.16
2022-12-18T04:50:56.012Z,102050.06
2022-12-18T04:56:13.266Z,102065.97
2022-12-18T05:01:17.595Z,102074.44
2022-12-18T05:06:19.789Z,102080.09
2022-12-18T05:11:21.801Z,102087.31
2022-12-18T05:16:24.062Z,102093.59
2022-12-18T05:21:26.326Z,102105.28
2022-12-18T05:26:28.334Z,102098.41
2022-12-18T05:31:34.602Z,102101.28
2022-12-18T05:36:39.634Z,102109.38
2022-12-18T05:41:41.755Z,102113.47
2022-12-18T05:46:44.589Z,102121.41
2022-12-18T05:51:46.985Z,102116.44
2022-12-18T05:56:49.175Z,102141.19
2022-12-18T06:01:51.378Z,102130.19
2022-12-18T06:06:53.470Z,102131.37
2022-12-18T06:11:55.469Z,102152.66
2022-12-18T06:16:57.597Z,102157.97
2022-12-18T06:21:59.969Z,102136.69
2022-12-18T06:27:01.947Z,102149.00
2022-12-18T06:32:04.146Z,102152.78
2022-12-18T06:37:06.177Z,102169.03
2022-12-18T06:42:08.220Z,102180.53
2022-12-18T06:47:10.578Z,102192.84
2022-12-18T06:52:12.825Z,102190.31
2022-12-18T06:57:14.886Z,102185.75
2022-12-18T07:02:17.154Z,102218.00
2022-12-18T07:07:19.345Z,102229.34
2022-12-18T07:12:21.349Z,102219.31
2022-12-18T07:17:23.393Z,102238.66
2022-12-18T07:22:26.783Z,102248.84
2022-12-18T07:27:28.835Z,102238.56
2022-12-18T07:32:31.571Z,102267.34
2022-12-18T07:37:33.975Z,102262.66
2022-12-18T07:42:37.084Z,102283.59
2022-12-18T07:47:39.205Z,102284.25
2022-12-18T07:52:41.242Z,102286.34
2022-12-18T07:57:53.301Z,102309.25
2022-12-18T08:02:57.886Z,102313.28
2022-12-18T08:07:59.941Z,102304.56
2022-12-18T08:13:05.148Z,102329.94
2022-12-18T08:18:12.704Z,102335.47
2022-12-18T08:23:16.240Z,102345.19
2022-12-18T08:28:18.594Z,102340.16
2022-12-18T08:33:20.681Z,102351.69
2022-12-18T08:38:24.262Z,102355.16
2022-12-18T08:43:44.561Z,102355.25
2022-12-18T08:48:47.346Z,102355.59
2022-12-18T08:53:49.430Z,102350.00
2022-12-18T08:58:55.571Z,102354.72
2022-12-18T09:03:57.610Z,102351.19
2022-12-18T09:08:59.759Z,102369.25
2022-12-18T09:14:02.976Z,102368.81
2022-12-18T09:19:05.776Z,102384.19
2022-12-18T09:24:14.387Z,102375.16
2022-12-18T09:29:18.756Z,102387.69
2022-12-18T09:34:22.892Z,102382.81
2022-12-18T09:39:25.134Z,102388.63
2022-12-18T09:44:47.051Z,102365.56
2022-12-18T09:49:53.826Z,102374.16
2022-12-18T09:55:05.275Z,102397.50
2022-12-18T10:00:20.046Z,102379.47
2022-12-18T10:05:36.857Z,102365.94
2022-12-18T10:10:49.636Z,102386.47
2022-12-18T10:16:11.711Z,102390.00
2022-12-18T10:21:20.837Z,102382.66
2022-12-18T10:26:23.050Z,102383.78
2022-12-18T10:31:25.737Z,102391.25
2022-12-18T10:36:27.917Z,102384.53
2022-12-18T10:41:31.860Z,102385.38
2022-12-18T10:46:33.993Z,102390.66
2022-12-18T10:51:38.577Z,102402.63
2022-12-18T10:56:41.112Z,102391.72
2022-12-18T11:01:58.203Z,102395.16
2022-12-18T11:07:03.911Z,102393.28
2022-12-18T11:12:29.434Z,102372.13
2022-12-18T11:17:36.725Z,102384.25
2022-12-18T11:22:39.475Z,102373.63
2022-12-18T11:27:41.722Z,102377.06
2022-12-18T11:32:48.205Z,102376.59
2022-12-18T11:38:00.450Z,102377.91
2022-12-18T11:43:17.948Z,102359.53
2022-12-18T11:49:12.696Z,102350.84
2022-12-18T11:54:17.071Z,102339.19
2022-12-18T11:59:41.243Z,102346.41
2022-12-18T12:04:46.990Z,102340.81
2022-12-18T12:10:13.185Z,102347.69
2022-12-18T12:15:37.262Z,102337.84
2022-12-18T12:20:47.033Z,102336.13
2022-12-18T12:26:00.422Z,102335.63
2022-12-18T12:31:21.074Z,102313.88
2022-12-18T12:36:23.038Z,102312.06
2022-12-18T12:41:47.522Z,102305.84
2022-12-18T12:46:52.908Z,102296.78
2022-12-18T12:52:04.679Z,102315.09
2022-12-18T12:57:34.656Z,102320.72
2022-12-18T13:02:46.863Z,102331.19
2022-12-18T13:07:59.290Z,102336.00
2022-12-18T13:13:04.385Z,102324.16
2022-12-18T13:18:10.327Z,102336.78
2022-12-18T13:23:24.627Z,102327.66
2022-12-18T13:28:46.023Z,102340.06
2022-12-18T13:34:24.568Z,102344.16
2022-12-18T13:39:23.828Z,102351.25
2022-12-18T13:44:41.638Z,102357.66
2022-12-18T13:49:45.340Z,102348.66
2022-12-18T13:54:56.197Z,102351.75
2022-12-18T13:59:59.639Z,102369.16
2022-12-18T14:05:01.674Z,102355.09
2022-12-18T14:10:26.079Z,102367.59
2022-12-18T14:15:26.148Z,102374.12
2022-12-18T14:20:30.916Z,102377.66
2022-12-18T14:25:34.074Z,102379.44
2022-12-18T14:30:39.779Z,102368.56
2022-12-18T14:35:44.460Z,102371.88
2022-12-18T14:40:46.702Z,102385.78
2022-12-18T14:45:50.512Z,102395.69
2022-12-18T14:51:14.910Z,102387.88
2022-12-18T14:56:26.567Z,102391.69
2022-12-18T15:01:36.113Z,102417.06
2022-12-18T15:06:41.022Z,102417.06
2022-12-18T15:11:42.966Z,102421.84
2022-12-18T15:16:46.331Z,102429.56
2022-12-18T15:21:48.534Z,102430.78
2022-12-18T15:26:50.638Z,102442.12
2022-12-18T15:32:01.084Z,102438.44
2022-12-18T15:37:03.194Z,102438.44
2022-12-18T15:42:28.672Z,102467.75
2022-12-18T15:47:30.866Z,102465.72
2022-12-18T15:52:41.064Z,102485.50
2022-12-18T15:57:43.096Z,102490.38
2022-12-18T16:02:45.296Z,102491.69
2022-12-18T16:07:47.661Z,102492.53
2022-12-18T16:12:49.729Z,102509.03
2022-12-18T16:17:52.909Z,102509.56
2022-12-18T16:22:55.054Z,102515.38
2022-12-18T16:27:57.793Z,102524.28
2022-12-18T16:33:00.130Z,102518.00
2022-12-18T16:38:02.221Z,102515.03
2022-12-18T16:43:04.252Z,102513.69
2022-12-18T16:48:06.601Z,102517.31
2022-12-18T16:53:08.666Z,102523.28
2022-12-18T16:58:11.147Z,102535.13
2022-12-18T17:03:13.315Z,102527.28
2022-12-18T17:08:15.506Z,102537.59
2022-12-18T17:13:21.381Z,102532.88
2022-12-18T17:18:26.934Z,102516.16
2022-12-18T17:23:30.054Z,102518.81
2022-12-18T17:28:32.073Z,102532.63
2022-12-18T17:33:34.121Z,102536.97
2022-12-18T17:38:36.850Z,102526.91
2022-12-18T17:43:47.658Z,102543.97
2022-12-18T17:53:52.370Z,102555.31
2022-12-18T17:58:54.666Z,102546.72
2022-12-18T18:03:56.846Z,102546.62
2022-12-18T18:08:58.952Z,102520.81
2022-12-18T18:14:01.818Z,102517.72
2022-12-18T18:19:06.833Z,102542.16
2022-12-18T18:24:10.428Z,102542.88
2022-12-18T18:29:21.204Z,102555.94
2022-12-18T18:34:26.559Z,102561.16
2022-12-18T18:39:29.490Z,102561.94
2022-12-18T18:44:31.764Z,102551.38
2022-12-18T18:49:34.325Z,102553.53
2022-12-18T18:54:36.453Z,102580.13
2022-12-18T18:59:38.587Z,102587.47
2022-12-18T19:04:42.715Z,102581.41
2022-12-18T19:09:51.980Z,102599.69
2022-12-18T19:14:54.820Z,102598.66
2022-12-18T19:19:56.862Z,102586.16
2022-12-18T19:24:58.983Z,102599.41
2022-12-18T19:30:01.088Z,102615.28
2022-12-18T19:35:03.189Z,102614.34
2022-12-18T19:40:12.303Z,102613.94
2022-12-18T19:45:14.905Z,102629.13
2022-12-18T19:50:17.679Z,102633.37
2022-12-18T19:55:19.829Z,102620.19
2022-12-18T20:00:22.011Z,102641.84
2022-12-18T20:05:25.358Z,102641.00
2022-12-18T20:10:27.438Z,102644.09
2022-12-18T20:15:29.468Z,102647.09
2022-12-18T20:20:31.530Z,102669.81
2022-12-18T20:25:33.708Z,102661.78
2022-12-18T20:30:35.920Z,102666.16
2022-12-18T20:35:38.021Z,102672.00
2022-12-18T20:40:43.412Z,102665.81
2022-12-18T20:45:45.595Z,102663.06
2022-12-18T20:51:06.027Z,102678.69
2022-12-18T20:56:21.196Z,102682.28
2022-12-18T21:01:25.174Z,102687.81
2022-12-18T21:06:27.397Z,102686.22
2022-12-18T21:11:50.626Z,102701.09
2022-12-18T21:16:52.729Z,102687.37
2022-12-18T21:21:56.332Z,102706.31
2022-12-18T21:26:58.376Z,102701.31
2022-12-18T21:32:02.154Z,102716.94
2022-12-18T21:37:04.537Z,102698.75
2022-12-18T21:42:25.932Z,102691.22
2022-12-18T21:47:28.060Z,102700.69
2022-12-18T21:52:32.098Z,102670.50
2022-12-18T21:57:34.441Z,102692.50
2022-12-18T22:02:36.544Z,102694.63
2022-12-18T22:07:38.802Z,102669.12
2022-12-18T22:12:44.087Z,102682.94
2022-12-18T22:17:47.554Z,102679.41
2022-12-18T22:22:51.761Z,102690.56
2022-12-18T22:28:12.216Z,102682.16
2022-12-18T22:33:14.320Z,102682.12
2022-12-18T22:38:17.569Z,102675.59
2022-12-18T22:43:19.587Z,102679.94
2022-12-18T22:48:21.807Z,102690.91
2022-12-18T22:53:24.381Z,102680.59
2022-12-18T22:58:26.467Z,102682.03
2022-12-18T23:03:28.620Z,102707.66
2022-12-18T23:08:30.727Z,102708.25
2022-12-18T23:13:34.322Z,102698.78
2022-12-18T23:18:37.083Z,102706.91
2022-12-18T23:23:39.456Z,102712.25
2022-12-18T23:28:41.788Z,102719.75
2022-12-18T23:33:45.424Z,102721.91
2022-12-18T23:38:49.722Z,102714.37
2022-12-18T23:43:53.041Z,102711.41
2022-12-18T23:48:55.173Z,102713.84
2022-12-18T23:54:00.992Z,102715.22
2022-12-18T23:59:03.106Z,102719.91
